sensor_id;sensor_type;location;lat;lon;timestamp;pressure;altitude;pressure_sealevel;temperature;humidity
23223;BME280;11780;13.904;100.620;2023-07-20T00:00:12;100545.84;;;32.58;56.57
23223;BME280;11780;13.904;100.620;2023-07-20T00:03:12;100547.81;;;32.58;56.57
23223;BME280;11780;13.904;100.620;2023-07-20T00:05:49;100549.44;;;32.59;56.45
23223;BME280;11780;13.904;100.620;2023-07-20T00:08:19;100556.00;;;32.54;56.73
23223;BME280;11780;13.904;100.620;2023-07-20T00:10:50;100552.53;;;32.57;56.72
23223;BME280;11780;13.904;100.620;2023-07-20T00:13:21;100550.13;;;32.56;56.55
23223;BME280;11780;13.904;100.620;2023-07-20T00:15:52;100561.19;;;32.56;56.68
23223;BME280;11780;13.904;100.620;2023-07-20T00:18:22;100560.38;;;32.55;56.51
23223;BME280;11780;13.904;100.620;2023-07-20T00:20:52;100566.13;;;32.50;56.96
23223;BME280;11780;13.904;100.620;2023-07-20T00:23:23;100555.84;;;32.50;57.26
23223;BME280;11780;13.904;100.620;2023-07-20T00:25:53;100561.53;;;32.54;57.22
23223;BME280;11780;13.904;100.620;2023-07-20T00:28:24;100557.94;;;32.54;57.25
23223;BME280;11780;13.904;100.620;2023-07-20T00:30:54;100557.94;;;32.54;57.09
23223;BME280;11780;13.904;100.620;2023-07-20T00:33:25;100558.44;;;32.56;57.05
23223;BME280;11780;13.904;100.620;2023-07-20T00:35:55;100557.28;;;32.57;57.26
23223;BME280;11780;13.904;100.620;2023-07-20T00:38:26;100561.19;;;32.56;57.32
23223;BME280;11780;13.904;100.620;2023-07-20T00:40:56;100557.81;;;32.50;57.13
23223;BME280;11780;13.904;100.620;2023-07-20T00:43:27;100553.09;;;32.50;57.33
23223;BME280;11780;13.904;100.620;2023-07-20T00:45:57;100552.28;;;32.50;57.33
23223;BME280;11780;13.904;100.620;2023-07-20T00:48:28;100563.38;;;32.50;57.52
23223;BME280;11780;13.904;100.620;2023-07-20T00:51:00;100550.31;;;32.50;57.49
23223;BME280;11780;13.904;100.620;2023-07-20T00:53:32;100553.56;;;32.53;57.86
23223;BME280;11780;13.904;100.620;2023-07-20T00:56:02;100563.84;;;32.52;57.88
23223;BME280;11780;13.904;100.620;2023-07-20T00:58:35;100562.69;;;32.53;57.74
23223;BME280;11780;13.904;100.620;2023-07-20T01:01:06;100570.16;;;32.53;57.89
23223;BME280;11780;13.904;100.620;2023-07-20T01:03:36;100572.22;;;32.43;58.05
23223;BME280;11780;13.904;100.620;2023-07-20T01:09:18;100583.22;;;32.52;58.00
23223;BME280;11780;13.904;100.620;2023-07-20T01:14:25;100578.00;;;32.50;58.23
23223;BME280;11780;13.904;100.620;2023-07-20T01:16:55;100584.69;;;32.49;58.49
23223;BME280;11780;13.904;100.620;2023-07-20T01:19:26;100579.84;;;32.46;58.61
23223;BME280;11780;13.904;100.620;2023-07-20T01:30:49;100600.81;;;32.47;59.05
23223;BME280;11780;13.904;100.620;2023-07-20T01:33:22;100604.06;;;32.49;58.96
23223;BME280;11780;13.904;100.620;2023-07-20T01:35:58;100594.13;;;32.48;58.83
23223;BME280;11780;13.904;100.620;2023-07-20T01:38:30;100595.44;;;32.51;58.74
23223;BME280;11780;13.904;100.620;2023-07-20T01:41:00;100587.69;;;32.44;58.81
23223;BME280;11780;13.904;100.620;2023-07-20T01:43:32;100597.38;;;32.50;58.95
23223;BME280;11780;13.904;100.620;2023-07-20T01:46:02;100593.81;;;32.50;59.29
23223;BME280;11780;13.904;100.620;2023-07-20T01:48:32;100604.91;;;32.50;59.21
23223;BME280;11780;13.904;100.620;2023-07-20T01:51:03;100599.69;;;32.48;59.23
23223;BME280;11780;13.904;100.620;2023-07-20T01:53:33;100609.13;;;32.47;59.42
23223;BME280;11780;13.904;100.620;2023-07-20T01:56:03;100611.22;;;32.50;58.96
23223;BME280;11780;13.904;100.620;2023-07-20T01:58:35;100619.53;;;32.50;59.00
23223;BME280;11780;13.904;100.620;2023-07-20T02:01:05;100622.53;;;32.45;59.25
23223;BME280;11780;13.904;100.620;2023-07-20T02:03:35;100623.44;;;32.49;59.39
23223;BME280;11780;13.904;100.620;2023-07-20T02:06:06;100627.84;;;32.50;59.24
23223;BME280;11780;13.904;100.620;2023-07-20T02:08:36;100621.16;;;32.52;59.43
23223;BME280;11780;13.904;100.620;2023-07-20T02:11:06;100626.22;;;32.49;59.37
23223;BME280;11780;13.904;100.620;2023-07-20T02:13:37;100623.44;;;32.49;59.90
23223;BME280;11780;13.904;100.620;2023-07-20T02:16:07;100614.94;;;32.55;59.16
23223;BME280;11780;13.904;100.620;2023-07-20T02:18:37;100619.34;;;32.56;59.57
23223;BME280;11780;13.904;100.620;2023-07-20T02:21:08;100620.00;;;32.53;59.09
23223;BME280;11780;13.904;100.620;2023-07-20T02:23:38;100618.19;;;32.57;59.05
23223;BME280;11780;13.904;100.620;2023-07-20T02:26:08;100619.53;;;32.50;59.33
23223;BME280;11780;13.904;100.620;2023-07-20T02:28:39;100618.97;;;32.57;59.10
23223;BME280;11780;13.904;100.620;2023-07-20T02:31:12;100625.00;;;32.59;58.90
23223;BME280;11780;13.904;100.620;2023-07-20T02:33:42;100627.91;;;32.63;58.71
23223;BME280;11780;13.904;100.620;2023-07-20T02:36:12;100635.75;;;32.61;58.99
23223;BME280;11780;13.904;100.620;2023-07-20T02:38:43;100630.53;;;32.59;59.06
23223;BME280;11780;13.904;100.620;2023-07-20T02:41:13;100630.66;;;32.63;58.74
23223;BME280;11780;13.904;100.620;2023-07-20T02:43:44;100628.72;;;32.63;58.81
23223;BME280;11780;13.904;100.620;2023-07-20T02:46:14;100627.78;;;32.59;58.91
23223;BME280;11780;13.904;100.620;2023-07-20T02:48:45;100628.59;;;32.60;58.73
23223;BME280;11780;13.904;100.620;2023-07-20T02:51:15;100628.25;;;32.61;59.22
23223;BME280;11780;13.904;100.620;2023-07-20T02:53:45;100631.13;;;32.65;59.02
23223;BME280;11780;13.904;100.620;2023-07-20T02:56:16;100622.34;;;32.63;58.87
23223;BME280;11780;13.904;100.620;2023-07-20T02:58:48;100625.13;;;32.63;58.99
23223;BME280;11780;13.904;100.620;2023-07-20T03:01:19;100610.13;;;32.64;59.11
23223;BME280;11780;13.904;100.620;2023-07-20T03:03:49;100606.56;;;32.63;58.53
23223;BME280;11780;13.904;100.620;2023-07-20T03:06:19;100608.50;;;32.63;58.68
23223;BME280;11780;13.904;100.620;2023-07-20T03:08:50;100602.31;;;32.66;58.42
23223;BME280;11780;13.904;100.620;2023-07-20T03:11:23;100597.09;;;32.64;58.44
23223;BME280;11780;13.904;100.620;2023-07-20T03:13:53;100609.25;;;32.72;58.45
23223;BME280;11780;13.904;100.620;2023-07-20T03:16:24;100607.63;;;32.71;58.34
23223;BME280;11780;13.904;100.620;2023-07-20T03:18:54;100613.53;;;32.70;57.95
23223;BME280;11780;13.904;100.620;2023-07-20T03:21:26;100606.56;;;32.63;58.19
23223;BME280;11780;13.904;100.620;2023-07-20T03:23:58;100612.22;;;32.67;58.29
23223;BME280;11780;13.904;100.620;2023-07-20T03:26:30;100615.66;;;32.64;58.45
23223;BME280;11780;13.904;100.620;2023-07-20T03:29:00;100622.34;;;32.63;58.39
23223;BME280;11780;13.904;100.620;2023-07-20T03:31:32;100618.25;;;32.69;58.66
23223;BME280;11780;13.904;100.620;2023-07-20T03:34:03;100630.34;;;32.64;58.74
23223;BME280;11780;13.904;100.620;2023-07-20T03:36:36;100628.03;;;32.67;58.58
23223;BME280;11780;13.904;100.620;2023-07-20T03:39:06;100621.38;;;32.68;58.58
23223;BME280;11780;13.904;100.620;2023-07-20T03:41:37;100619.47;;;32.59;58.65
23223;BME280;11780;13.904;100.620;2023-07-20T03:44:07;100616.81;;;32.63;58.23
23223;BME280;11780;13.904;100.620;2023-07-20T03:46:37;100611.34;;;32.75;58.10
23223;BME280;11780;13.904;100.620;2023-07-20T03:49:08;100615.13;;;32.71;57.93
23223;BME280;11780;13.904;100.620;2023-07-20T03:51:38;100621.47;;;32.71;58.14
23223;BME280;11780;13.904;100.620;2023-07-20T03:54:09;100620.81;;;32.74;57.96
23223;BME280;11780;13.904;100.620;2023-07-20T03:56:39;100615.59;;;32.73;57.80
23223;BME280;11780;13.904;100.620;2023-07-20T03:59:10;100615.94;;;32.71;57.70
23223;BME280;11780;13.904;100.620;2023-07-20T04:01:40;100608.13;;;32.73;57.59
23223;BME280;11780;13.904;100.620;2023-07-20T04:04:10;100600.47;;;32.70;57.91
23223;BME280;11780;13.904;100.620;2023-07-20T04:06:41;100601.44;;;32.74;57.89
23223;BME280;11780;13.904;100.620;2023-07-20T04:09:14;100596.91;;;32.70;57.82
23223;BME280;11780;13.904;100.620;2023-07-20T04:11:44;100592.88;;;32.79;57.68
23223;BME280;11780;13.904;100.620;2023-07-20T04:14:14;100596.69;;;32.75;57.81
23223;BME280;11780;13.904;100.620;2023-07-20T04:16:47;100588.72;;;32.73;57.75
23223;BME280;11780;13.904;100.620;2023-07-20T04:19:17;100588.84;;;32.77;57.88
23223;BME280;11780;13.904;100.620;2023-07-20T04:21:47;100598.44;;;32.79;57.82
23223;BME280;11780;13.904;100.620;2023-07-20T04:24:18;100594.94;;;32.70;57.80
23223;BME280;11780;13.904;100.620;2023-07-20T04:26:48;100595.88;;;32.74;57.83
23223;BME280;11780;13.904;100.620;2023-07-20T04:29:19;100597.28;;;32.80;57.76
23223;BME280;11780;13.904;100.620;2023-07-20T04:31:49;100592.25;;;32.83;57.71
23223;BME280;11780;13.904;100.620;2023-07-20T04:34:19;100583.44;;;32.80;57.87
23223;BME280;11780;13.904;100.620;2023-07-20T04:36:50;100583.94;;;32.83;58.00
23223;BME280;11780;13.904;100.620;2023-07-20T04:39:22;100579.75;;;32.76;57.89
23223;BME280;11780;13.904;100.620;2023-07-20T04:42:06;100582.31;;;32.82;57.83
23223;BME280;11780;13.904;100.620;2023-07-20T04:44:36;100583.59;;;32.84;57.91
23223;BME280;11780;13.904;100.620;2023-07-20T04:47:08;100586.19;;;32.80;57.80
23223;BME280;11780;13.904;100.620;2023-07-20T04:49:38;100593.53;;;32.85;57.58
23223;BME280;11780;13.904;100.620;2023-07-20T04:52:09;100593.19;;;32.87;57.83
23223;BME280;11780;13.904;100.620;2023-07-20T04:54:40;100590.06;;;32.88;57.52
23223;BME280;11780;13.904;100.620;2023-07-20T04:57:12;100592.09;;;32.79;57.71
23223;BME280;11780;13.904;100.620;2023-07-20T04:59:47;100587.69;;;32.78;57.46
23223;BME280;11780;13.904;100.620;2023-07-20T05:02:17;100592.03;;;32.88;57.79
23223;BME280;11780;13.904;100.620;2023-07-20T05:04:48;100589.75;;;32.90;57.62
23223;BME280;11780;13.904;100.620;2023-07-20T05:07:18;100582.56;;;32.89;57.85
23223;BME280;11780;13.904;100.620;2023-07-20T05:09:49;100586.97;;;32.90;57.71
23223;BME280;11780;13.904;100.620;2023-07-20T05:12:20;100587.84;;;32.82;57.85
23223;BME280;11780;13.904;100.620;2023-07-20T05:14:50;100585.81;;;32.91;57.70
23223;BME280;11780;13.904;100.620;2023-07-20T05:17:21;100586.81;;;32.86;57.55
23223;BME280;11780;13.904;100.620;2023-07-20T05:19:52;100584.19;;;32.90;57.77
23223;BME280;11780;13.904;100.620;2023-07-20T05:22:22;100583.44;;;32.80;57.96
23223;BME280;11780;13.904;100.620;2023-07-20T05:24:54;100575.28;;;32.84;58.08
23223;BME280;11780;13.904;100.620;2023-07-20T05:27:24;100566.97;;;32.84;57.99
23223;BME280;11780;13.904;100.620;2023-07-20T05:29:55;100560.06;;;32.90;57.52
23223;BME280;11780;13.904;100.620;2023-07-20T05:32:25;100567.78;;;32.85;57.96
23223;BME280;11780;13.904;100.620;2023-07-20T05:34:56;100562.03;;;32.90;57.99
23223;BME280;11780;13.904;100.620;2023-07-20T05:37:26;100564.81;;;32.90;57.77
23223;BME280;11780;13.904;100.620;2023-07-20T05:39:57;100553.47;;;32.95;57.46
23223;BME280;11780;13.904;100.620;2023-07-20T05:42:27;100550.59;;;32.91;57.61
23223;BME280;11780;13.904;100.620;2023-07-20T05:44:57;100547.50;;;32.93;57.55
23223;BME280;11780;13.904;100.620;2023-07-20T05:47:28;100549.44;;;32.92;57.51
23223;BME280;11780;13.904;100.620;2023-07-20T05:49:58;100545.06;;;32.91;57.55
23223;BME280;11780;13.904;100.620;2023-07-20T05:52:29;100539.50;;;32.91;57.11
23223;BME280;11780;13.904;100.620;2023-07-20T05:54:59;100526.03;;;32.90;57.32
23223;BME280;11780;13.904;100.620;2023-07-20T05:57:30;100522.09;;;32.91;57.49
23223;BME280;11780;13.904;100.620;2023-07-20T06:00:00;100514.25;;;32.93;57.30
23223;BME280;11780;13.904;100.620;2023-07-20T06:02:38;100510.78;;;32.96;57.09
23223;BME280;11780;13.904;100.620;2023-07-20T06:05:09;100508.72;;;32.93;57.16
23223;BME280;11780;13.904;100.620;2023-07-20T06:07:39;100497.19;;;33.03;56.91
23223;BME280;11780;13.904;100.620;2023-07-20T06:10:10;100490.47;;;33.04;56.73
23223;BME280;11780;13.904;100.620;2023-07-20T06:12:40;100491.53;;;33.00;56.74
23223;BME280;11780;13.904;100.620;2023-07-20T06:15:34;100489.53;;;33.00;56.92
23223;BME280;11780;13.904;100.620;2023-07-20T06:18:08;100494.28;;;33.00;56.92
23223;BME280;11780;13.904;100.620;2023-07-20T06:20:39;100489.09;;;32.98;56.86
23223;BME280;11780;13.904;100.620;2023-07-20T06:23:09;100478.00;;;32.98;56.74
23223;BME280;11780;13.904;100.620;2023-07-20T06:25:40;100486.66;;;33.09;56.64
23223;BME280;11780;13.904;100.620;2023-07-20T06:28:10;100473.84;;;33.04;56.53
23223;BME280;11780;13.904;100.620;2023-07-20T06:30:40;100468.06;;;33.09;56.46
23223;BME280;11780;13.904;100.620;2023-07-20T06:33:11;100460.69;;;33.01;56.55
23223;BME280;11780;13.904;100.620;2023-07-20T06:35:42;100463.25;;;33.06;56.54
23223;BME280;11780;13.904;100.620;2023-07-20T06:38:13;100454.00;;;33.02;56.62
23223;BME280;11780;13.904;100.620;2023-07-20T06:40:52;100440.81;;;33.12;56.31
23223;BME280;11780;13.904;100.620;2023-07-20T06:43:22;100444.31;;;33.08;56.17
23223;BME280;11780;13.904;100.620;2023-07-20T06:45:55;100436.09;;;33.00;56.34
23223;BME280;11780;13.904;100.620;2023-07-20T06:48:26;100430.00;;;33.06;56.26
23223;BME280;11780;13.904;100.620;2023-07-20T06:50:56;100424.44;;;33.06;56.44
23223;BME280;11780;13.904;100.620;2023-07-20T06:53:26;100428.59;;;33.13;56.27
23223;BME280;11780;13.904;100.620;2023-07-20T06:55:57;100415.09;;;33.11;56.12
23223;BME280;11780;13.904;100.620;2023-07-20T06:58:27;100413.94;;;33.12;56.25
23223;BME280;11780;13.904;100.620;2023-07-20T07:00:57;100402.38;;;33.10;56.25
23223;BME280;11780;13.904;100.620;2023-07-20T07:03:27;100408.03;;;33.14;56.11
23223;BME280;11780;13.904;100.620;2023-07-20T07:06:02;100400.31;;;33.07;56.22
23223;BME280;11780;13.904;100.620;2023-07-20T07:08:33;100396.28;;;33.04;56.26
23223;BME280;11780;13.904;100.620;2023-07-20T07:11:04;100388.53;;;33.10;56.07
23223;BME280;11780;13.904;100.620;2023-07-20T07:13:35;100387.47;;;33.15;55.86
23223;BME280;11780;13.904;100.620;2023-07-20T07:16:05;100383.09;;;33.14;56.08
23223;BME280;11780;13.904;100.620;2023-07-20T07:18:36;100376.41;;;33.15;55.93
23223;BME280;11780;13.904;100.620;2023-07-20T07:21:06;100380.44;;;33.17;55.82
23223;BME280;11780;13.904;100.620;2023-07-20T07:23:38;100375.00;;;33.21;55.99
23223;BME280;11780;13.904;100.620;2023-07-20T07:26:09;100363.69;;;33.14;56.07
23223;BME280;11780;13.904;100.620;2023-07-20T07:28:40;100362.53;;;33.15;56.04
23223;BME280;11780;13.904;100.620;2023-07-20T07:31:10;100357.69;;;33.12;56.04
23223;BME280;11780;13.904;100.620;2023-07-20T07:33:41;100351.13;;;33.16;56.16
23223;BME280;11780;13.904;100.620;2023-07-20T07:36:11;100349.63;;;33.19;56.17
23223;BME280;11780;13.904;100.620;2023-07-20T07:38:41;100346.16;;;33.22;56.09
23223;BME280;11780;13.904;100.620;2023-07-20T07:41:32;100346.16;;;33.22;56.00
23223;BME280;11780;13.904;100.620;2023-07-20T07:44:03;100345.09;;;33.27;56.05
23223;BME280;11780;13.904;100.620;2023-07-20T07:46:33;100346.34;;;33.29;55.82
23223;BME280;11780;13.904;100.620;2023-07-20T07:49:03;100338.16;;;33.20;55.88
23223;BME280;11780;13.904;100.620;2023-07-20T07:51:34;100337.13;;;33.13;56.22
23223;BME280;11780;13.904;100.620;2023-07-20T07:54:04;100337.84;;;33.09;56.26
23223;BME280;11780;13.904;100.620;2023-07-20T07:56:35;100340.25;;;33.23;55.90
23223;BME280;11780;13.904;100.620;2023-07-20T07:59:05;100336.09;;;33.17;55.95
23223;BME280;11780;13.904;100.620;2023-07-20T08:01:35;100337.00;;;33.21;56.04
23223;BME280;11780;13.904;100.620;2023-07-20T08:04:06;100338.03;;;33.29;55.57
23223;BME280;11780;13.904;100.620;2023-07-20T08:06:37;100344.03;;;33.31;55.36
23223;BME280;11780;13.904;100.620;2023-07-20T08:09:07;100339.44;;;33.23;55.56
23223;BME280;11780;13.904;100.620;2023-07-20T08:11:39;100337.34;;;33.32;55.55
23223;BME280;11780;13.904;100.620;2023-07-20T08:14:10;100325.59;;;33.23;55.57
23223;BME280;11780;13.904;100.620;2023-07-20T08:16:40;100329.97;;;33.24;55.57
23223;BME280;11780;13.904;100.620;2023-07-20T08:19:10;100331.34;;;33.30;55.89
23223;BME280;11780;13.904;100.620;2023-07-20T08:21:41;100333.19;;;33.26;55.64
23223;BME280;11780;13.904;100.620;2023-07-20T08:24:11;100328.56;;;33.30;55.58
23223;BME280;11780;13.904;100.620;2023-07-20T08:26:42;100331.38;;;33.18;55.82
23223;BME280;11780;13.904;100.620;2023-07-20T08:29:13;100320.16;;;33.27;55.85
23223;BME280;11780;13.904;100.620;2023-07-20T08:31:43;100319.78;;;33.28;55.82
23223;BME280;11780;13.904;100.620;2023-07-20T08:34:14;100323.47;;;33.32;55.62
23223;BME280;11780;13.904;100.620;2023-07-20T08:36:58;100328.09;;;33.28;56.01
23223;BME280;11780;13.904;100.620;2023-07-20T08:39:29;100325.31;;;33.28;56.02
23223;BME280;11780;13.904;100.620;2023-07-20T08:42:01;100319.00;;;33.28;56.05
23223;BME280;11780;13.904;100.620;2023-07-20T08:44:37;100319.91;;;33.32;55.99
23223;BME280;11780;13.904;100.620;2023-07-20T08:47:09;100324.53;;;33.28;55.93
23223;BME280;11780;13.904;100.620;2023-07-20T08:49:41;100322.31;;;33.33;55.75
23223;BME280;11780;13.904;100.620;2023-07-20T08:52:11;100325.69;;;33.27;56.05
23223;BME280;11780;13.904;100.620;2023-07-20T08:54:42;100326.25;;;33.32;56.00
23223;BME280;11780;13.904;100.620;2023-07-20T08:57:13;100329.47;;;33.34;55.84
23223;BME280;11780;13.904;100.620;2023-07-20T08:59:47;100351.00;;;33.37;55.78
23223;BME280;11780;13.904;100.620;2023-07-20T09:02:18;100361.03;;;33.30;56.21
23223;BME280;11780;13.904;100.620;2023-07-20T09:04:49;100367.81;;;33.32;56.54
23223;BME280;11780;13.904;100.620;2023-07-20T09:07:20;100381.22;;;33.30;56.40
23223;BME280;11780;13.904;100.620;2023-07-20T09:09:50;100387.22;;;33.32;60.66
23223;BME280;11780;13.904;100.620;2023-07-20T09:12:21;100392.00;;;33.07;65.54
23223;BME280;11780;13.904;100.620;2023-07-20T09:14:51;100396.72;;;32.94;65.65
23223;BME280;11780;13.904;100.620;2023-07-20T09:17:25;100388.53;;;32.98;65.52
23223;BME280;11780;13.904;100.620;2023-07-20T09:19:57;100395.78;;;32.77;65.92
23223;BME280;11780;13.904;100.620;2023-07-20T09:22:31;100380.91;;;32.70;65.94
23223;BME280;11780;13.904;100.620;2023-07-20T09:25:01;100380.53;;;32.71;66.29
23223;BME280;11780;13.904;100.620;2023-07-20T09:27:38;100372.69;;;32.73;66.24
23223;BME280;11780;13.904;100.620;2023-07-20T09:30:11;100365.56;;;32.72;66.29
23223;BME280;11780;13.904;100.620;2023-07-20T09:32:49;100358.16;;;32.64;66.42
23223;BME280;11780;13.904;100.620;2023-07-20T09:35:23;100363.94;;;32.71;66.51
23223;BME280;11780;13.904;100.620;2023-07-20T09:38:07;100360.22;;;32.67;66.23
23223;BME280;11780;13.904;100.620;2023-07-20T09:40:42;100361.38;;;32.66;66.31
23223;BME280;11780;13.904;100.620;2023-07-20T09:43:16;100360.00;;;32.60;66.55
23223;BME280;11780;13.904;100.620;2023-07-20T09:45:50;100364.16;;;32.66;66.36
23223;BME280;11780;13.904;100.620;2023-07-20T09:48:24;100359.53;;;32.58;66.50
23223;BME280;11780;13.904;100.620;2023-07-20T09:50:59;100363.34;;;32.65;66.08
23223;BME280;11780;13.904;100.620;2023-07-20T09:53:30;100369.94;;;32.61;66.40
23223;BME280;11780;13.904;100.620;2023-07-20T09:56:02;100373.72;;;32.56;66.20
23223;BME280;11780;13.904;100.620;2023-07-20T09:58:33;100380.75;;;32.54;66.28
23223;BME280;11780;13.904;100.620;2023-07-20T10:01:06;100362.41;;;32.61;66.32
23223;BME280;11780;13.904;100.620;2023-07-20T10:03:37;100361.16;;;32.59;66.37
23223;BME280;11780;13.904;100.620;2023-07-20T10:06:10;100366.81;;;32.62;66.17
23223;BME280;11780;13.904;100.620;2023-07-20T10:08:44;100374.31;;;32.62;66.29
23223;BME280;11780;13.904;100.620;2023-07-20T10:11:22;100361.16;;;32.59;66.51
23223;BME280;11780;13.904;100.620;2023-07-20T10:13:56;100374.19;;;32.58;66.71
23223;BME280;11780;13.904;100.620;2023-07-20T10:16:33;100365.19;;;32.61;66.42
23223;BME280;11780;13.904;100.620;2023-07-20T10:19:17;100367.16;;;32.61;66.10
23223;BME280;11780;13.904;100.620;2023-07-20T10:22:00;100392.09;;;32.61;66.22
23223;BME280;11780;13.904;100.620;2023-07-20T10:24:36;100409.28;;;32.67;65.90
23223;BME280;11780;13.904;100.620;2023-07-20T10:27:08;100438.22;;;32.69;65.76
23223;BME280;11780;13.904;100.620;2023-07-20T10:29:40;100448.97;;;32.71;65.90
23223;BME280;11780;13.904;100.620;2023-07-20T10:32:11;100457.16;;;32.67;66.47
23223;BME280;11780;13.904;100.620;2023-07-20T10:34:41;100450.66;;;32.63;66.34
23223;BME280;11780;13.904;100.620;2023-07-20T10:37:47;100439.50;;;32.72;66.44
23223;BME280;11780;13.904;100.620;2023-07-20T10:43:05;100423.81;;;32.63;66.54
23223;BME280;11780;13.904;100.620;2023-07-20T10:45:41;100419.41;;;32.62;67.02
23223;BME280;11780;13.904;100.620;2023-07-20T10:51:08;100410.66;;;32.60;66.67
23223;BME280;11780;13.904;100.620;2023-07-20T10:53:36;100412.03;;;32.67;66.81
23223;BME280;11780;13.904;100.620;2023-07-20T10:56:12;100423.91;;;32.67;67.17
23223;BME280;11780;13.904;100.620;2023-07-20T10:58:43;100434.31;;;32.70;66.74
23223;BME280;11780;13.904;100.620;2023-07-20T11:01:17;100435.09;;;32.71;67.08
23223;BME280;11780;13.904;100.620;2023-07-20T11:03:50;100438.22;;;32.69;66.90
23223;BME280;11780;13.904;100.620;2023-07-20T11:09:08;100442.25;;;32.72;67.05
23223;BME280;11780;13.904;100.620;2023-07-20T11:11:48;100451.41;;;32.72;67.16
23223;BME280;11780;13.904;100.620;2023-07-20T11:14:25;100457.81;;;32.64;67.24
23223;BME280;11780;13.904;100.620;2023-07-20T11:16:56;100462.81;;;32.71;66.69
23223;BME280;11780;13.904;100.620;2023-07-20T11:19:41;100457.16;;;32.67;66.96
23223;BME280;11780;13.904;100.620;2023-07-20T11:22:16;100459.91;;;32.67;66.40
23223;BME280;11780;13.904;100.620;2023-07-20T11:24:48;100459.34;;;32.61;66.72
23223;BME280;11780;13.904;100.620;2023-07-20T11:27:21;100469.63;;;32.61;66.48
23223;BME280;11780;13.904;100.620;2023-07-20T11:29:55;100473.28;;;32.65;66.54
23223;BME280;11780;13.904;100.620;2023-07-20T11:32:26;100475.16;;;32.61;66.21
23223;BME280;11780;13.904;100.620;2023-07-20T11:34:56;100473.06;;;32.58;66.03
23223;BME280;11780;13.904;100.620;2023-07-20T11:37:27;100486.63;;;32.50;66.43
23223;BME280;11780;13.904;100.620;2023-07-20T11:39:58;100493.78;;;32.52;66.48
23223;BME280;11780;13.904;100.620;2023-07-20T11:42:28;100498.66;;;32.55;66.31
23223;BME280;11780;13.904;100.620;2023-07-20T11:45:03;100509.25;;;32.53;66.30
23223;BME280;11780;13.904;100.620;2023-07-20T11:47:40;100500.28;;;32.56;66.28
23223;BME280;11780;13.904;100.620;2023-07-20T11:50:12;100508.00;;;32.50;66.47
23223;BME280;11780;13.904;100.620;2023-07-20T11:52:44;100506.03;;;32.50;66.50
23223;BME280;11780;13.904;100.620;2023-07-20T11:55:14;100508.31;;;32.48;66.48
23223;BME280;11780;13.904;100.620;2023-07-20T11:58:06;100506.38;;;32.49;66.64
23223;BME280;11780;13.904;100.620;2023-07-20T12:00:39;100511.56;;;32.50;66.38
23223;BME280;11780;13.904;100.620;2023-07-20T12:03:10;100510.41;;;32.52;66.75
23223;BME280;11780;13.904;100.620;2023-07-20T12:05:41;100506.38;;;32.49;66.98
23223;BME280;11780;13.904;100.620;2023-07-20T12:08:27;100516.50;;;32.45;67.02
23223;BME280;11780;13.904;100.620;2023-07-20T12:10:58;100509.94;;;32.49;66.90
23223;BME280;11780;13.904;100.620;2023-07-20T13:17:37;100546.00;;;31.29;71.49
23223;BME280;11780;13.904;100.620;2023-07-20T13:20:11;100559.34;;;31.27;71.59
23223;BME280;11780;13.904;100.620;2023-07-20T13:22:42;100565.66;;;31.37;71.58
23223;BME280;11780;13.904;100.620;2023-07-20T13:25:12;100572.31;;;31.44;71.26
23223;BME280;11780;13.904;100.620;2023-07-20T13:27:42;100568.44;;;31.37;71.66
23223;BME280;11780;13.904;100.620;2023-07-20T13:30:13;100568.72;;;31.44;71.13
23223;BME280;11780;13.904;100.620;2023-07-20T13:32:46;100574.72;;;31.46;71.30
23223;BME280;11780;13.904;100.620;2023-07-20T13:35:17;100576.34;;;31.47;71.00
23223;BME280;11780;13.904;100.620;2023-07-20T13:37:48;100585.16;;;31.40;71.38
23223;BME280;11780;13.904;100.620;2023-07-20T13:40:19;100574.59;;;31.42;71.28
23223;BME280;11780;13.904;100.620;2023-07-20T13:42:49;100590.81;;;31.44;71.06
23223;BME280;11780;13.904;100.620;2023-07-20T13:45:21;100591.50;;;31.32;71.39
23223;BME280;11780;13.904;100.620;2023-07-20T13:47:51;100596.06;;;31.37;71.33
23223;BME280;11780;13.904;100.620;2023-07-20T13:50:22;100597.38;;;31.31;71.61
23223;BME280;11780;13.904;100.620;2023-07-20T13:53:07;100597.66;;;31.38;71.45
23223;BME280;11780;13.904;100.620;2023-07-20T13:55:40;100618.94;;;31.46;71.14
23223;BME280;11780;13.904;100.620;2023-07-20T13:58:13;100622.44;;;31.64;70.82
23223;BME280;11780;13.904;100.620;2023-07-20T14:00:43;100626.84;;;31.65;70.67
23223;BME280;11780;13.904;100.620;2023-07-20T14:03:14;100625.56;;;31.63;70.71
23223;BME280;11780;13.904;100.620;2023-07-20T14:05:46;100629.91;;;31.81;70.07
23223;BME280;11780;13.904;100.620;2023-07-20T14:08:21;100634.78;;;31.84;70.21
23223;BME280;11780;13.904;100.620;2023-07-20T14:10:51;100634.13;;;31.79;70.30
23223;BME280;11780;13.904;100.620;2023-07-20T14:13:25;100637.66;;;31.88;70.32
23223;BME280;11780;13.904;100.620;2023-07-20T14:16:13;100645.31;;;31.91;69.99
23223;BME280;11780;13.904;100.620;2023-07-20T14:18:44;100640.75;;;31.86;70.07
23223;BME280;11780;13.904;100.620;2023-07-20T14:21:18;100643.00;;;31.93;70.20